sensor_id;sensor_type;location;lat;lon;timestamp;P1;durP1;ratioP1;P2;durP2;ratioP2
19867;SDS011;10096;51.112;6.776;2022-12-15T00:00:59;60.50;;;28.20;;
19867;SDS011;10096;51.112;6.776;2022-12-15T00:03:43;111.80;;;32.70;;
19867;SDS011;10096;51.112;6.776;2022-12-15T00:06:28;162.50;;;37.30;;
19867;SDS011;10096;51.112;6.776;2022-12-15T00:09:14;205.33;;;36.90;;
19867;SDS011;10096;51.112;6.776;2022-12-15T00:11:59;195.00;;;38.77;;
19867;SDS011;10096;51.112;6.776;2022-12-15T00:14:44;220.93;;;42.80;;
19867;SDS011;10096;51.112;6.776;2022-12-15T00:17:28;196.20;;;37.83;;
19867;SDS011;10096;51.112;6.776;2022-12-15T00:20:13;231.10;;;40.70;;
19867;SDS011;10096;51.112;6.776;2022-12-15T00:22:57;299.90;;;42.30;;
19867;SDS011;10096;51.112;6.776;2022-12-15T00:25:52;248.63;;;40.17;;
19867;SDS011;10096;51.112;6.776;2022-12-15T00:28:36;173.93;;;35.20;;
19867;SDS011;10096;51.112;6.776;2022-12-15T00:31:21;61.00;;;27.87;;
19867;SDS011;10096;51.112;6.776;2022-12-15T00:34:05;35.50;;;23.20;;
19867;SDS011;10096;51.112;6.776;2022-12-15T00:36:50;43.23;;;25.90;;
19867;SDS011;10096;51.112;6.776;2022-12-15T00:39:34;42.03;;;25.43;;
19867;SDS011;10096;51.112;6.776;2022-12-15T00:42:06;75.83;;;27.87;;
19867;SDS011;10096;51.112;6.776;2022-12-15T00:44:33;39.77;;;24.13;;
19867;SDS011;10096;51.112;6.776;2022-12-15T00:47:01;37.53;;;24.00;;
19867;SDS011;10096;51.112;6.776;2022-12-15T00:49:28;37.93;;;23.90;;
19867;SDS011;10096;51.112;6.776;2022-12-15T00:52:14;39.30;;;24.20;;
19867;SDS011;10096;51.112;6.776;2022-12-15T00:55:01;33.37;;;21.80;;
19867;SDS011;10096;51.112;6.776;2022-12-15T00:57:47;39.03;;;24.03;;
19867;SDS011;10096;51.112;6.776;2022-12-15T01:00:31;36.27;;;24.17;;
19867;SDS011;10096;51.112;6.776;2022-12-15T01:03:16;31.27;;;21.23;;
19867;SDS011;10096;51.112;6.776;2022-12-15T01:06:03;38.27;;;23.07;;
19867;SDS011;10096;51.112;6.776;2022-12-15T01:08:49;34.17;;;23.17;;
19867;SDS011;10096;51.112;6.776;2022-12-15T01:11:33;34.17;;;23.00;;
19867;SDS011;10096;51.112;6.776;2022-12-15T01:14:19;36.20;;;23.43;;
19867;SDS011;10096;51.112;6.776;2022-12-15T01:17:03;31.93;;;22.20;;
19867;SDS011;10096;51.112;6.776;2022-12-15T01:19:47;34.97;;;23.60;;
19867;SDS011;10096;51.112;6.776;2022-12-15T01:22:31;33.57;;;22.30;;
19867;SDS011;10096;51.112;6.776;2022-12-15T01:24:59;34.97;;;23.30;;
19867;SDS011;10096;51.112;6.776;2022-12-15T01:27:26;33.40;;;22.57;;
19867;SDS011;10096;51.112;6.776;2022-12-15T01:29:54;33.93;;;22.80;;
19867;SDS011;10096;51.112;6.776;2022-12-15T01:32:21;29.93;;;22.23;;
19867;SDS011;10096;51.112;6.776;2022-12-15T01:34:48;33.23;;;22.30;;
19867;SDS011;10096;51.112;6.776;2022-12-15T01:37:16;33.37;;;20.80;;
19867;SDS011;10096;51.112;6.776;2022-12-15T01:39:42;32.70;;;20.17;;
19867;SDS011;10096;51.112;6.776;2022-12-15T01:42:27;29.77;;;20.83;;
19867;SDS011;10096;51.112;6.776;2022-12-15T01:47:57;30.40;;;19.83;;
19867;SDS011;10096;51.112;6.776;2022-12-15T01:50:28;32.30;;;22.70;;
19867;SDS011;10096;51.112;6.776;2022-12-15T01:52:56;35.63;;;22.00;;
19867;SDS011;10096;51.112;6.776;2022-12-15T01:55:24;40.30;;;24.20;;
19867;SDS011;10096;51.112;6.776;2022-12-15T01:57:56;37.17;;;24.83;;
19867;SDS011;10096;51.112;6.776;2022-12-15T02:00:28;104.27;;;29.40;;
19867;SDS011;10096;51.112;6.776;2022-12-15T02:02:57;35.93;;;23.77;;
19867;SDS011;10096;51.112;6.776;2022-12-15T02:05:26;36.30;;;23.70;;
19867;SDS011;10096;51.112;6.776;2022-12-15T02:07:55;37.40;;;23.23;;
19867;SDS011;10096;51.112;6.776;2022-12-15T02:10:23;31.83;;;22.60;;
19867;SDS011;10096;51.112;6.776;2022-12-15T02:12:58;33.17;;;23.03;;
19867;SDS011;10096;51.112;6.776;2022-12-15T02:15:36;38.90;;;24.17;;
19867;SDS011;10096;51.112;6.776;2022-12-15T02:18:11;42.60;;;24.50;;
19867;SDS011;10096;51.112;6.776;2022-12-15T02:20:47;35.83;;;22.07;;
19867;SDS011;10096;51.112;6.776;2022-12-15T02:32:41;31.17;;;20.10;;
19867;SDS011;10096;51.112;6.776;2022-12-15T02:35:14;33.63;;;23.20;;
19867;SDS011;10096;51.112;6.776;2022-12-15T02:37:45;33.93;;;22.57;;
19867;SDS011;10096;51.112;6.776;2022-12-15T02:40:13;32.87;;;22.83;;
19867;SDS011;10096;51.112;6.776;2022-12-15T02:42:41;31.97;;;21.37;;
19867;SDS011;10096;51.112;6.776;2022-12-15T02:45:11;34.37;;;22.67;;
19867;SDS011;10096;51.112;6.776;2022-12-15T02:47:42;31.87;;;21.43;;
19867;SDS011;10096;51.112;6.776;2022-12-15T02:50:25;32.63;;;21.73;;
19867;SDS011;10096;51.112;6.776;2022-12-15T02:53:07;31.60;;;21.73;;
19867;SDS011;10096;51.112;6.776;2022-12-15T02:55:46;28.93;;;21.30;;
19867;SDS011;10096;51.112;6.776;2022-12-15T02:58:24;29.00;;;20.40;;
19867;SDS011;10096;51.112;6.776;2022-12-15T03:00:56;25.97;;;19.60;;
19867;SDS011;10096;51.112;6.776;2022-12-15T03:03:27;27.70;;;19.57;;
19867;SDS011;10096;51.112;6.776;2022-12-15T03:05:57;26.80;;;19.40;;
19867;SDS011;10096;51.112;6.776;2022-12-15T03:08:26;28.73;;;20.67;;
19867;SDS011;10096;51.112;6.776;2022-12-15T03:10:53;36.50;;;21.50;;
19867;SDS011;10096;51.112;6.776;2022-12-15T03:13:22;31.67;;;21.23;;
19867;SDS011;10096;51.112;6.776;2022-12-15T03:15:49;30.13;;;19.53;;
19867;SDS011;10096;51.112;6.776;2022-12-15T03:18:18;29.50;;;19.77;;
19867;SDS011;10096;51.112;6.776;2022-12-15T03:20:47;31.87;;;20.20;;
19867;SDS011;10096;51.112;6.776;2022-12-15T03:23:14;30.30;;;21.57;;
19867;SDS011;10096;51.112;6.776;2022-12-15T03:25:43;33.67;;;20.90;;
19867;SDS011;10096;51.112;6.776;2022-12-15T03:28:10;32.97;;;21.70;;
19867;SDS011;10096;51.112;6.776;2022-12-15T03:30:38;32.37;;;20.23;;
19867;SDS011;10096;51.112;6.776;2022-12-15T03:33:05;27.50;;;19.50;;
19867;SDS011;10096;51.112;6.776;2022-12-15T03:35:32;31.40;;;21.30;;
19867;SDS011;10096;51.112;6.776;2022-12-15T03:38:00;31.23;;;21.50;;
19867;SDS011;10096;51.112;6.776;2022-12-15T03:40:28;27.53;;;19.27;;
19867;SDS011;10096;51.112;6.776;2022-12-15T03:42:56;26.80;;;19.40;;
19867;SDS011;10096;51.112;6.776;2022-12-15T03:45:24;28.50;;;20.07;;
19867;SDS011;10096;51.112;6.776;2022-12-15T03:47:53;34.23;;;21.77;;
19867;SDS011;10096;51.112;6.776;2022-12-15T03:50:22;33.83;;;21.10;;
19867;SDS011;10096;51.112;6.776;2022-12-15T03:52:51;31.03;;;21.77;;
19867;SDS011;10096;51.112;6.776;2022-12-15T03:55:20;32.43;;;21.10;;
19867;SDS011;10096;51.112;6.776;2022-12-15T03:57:48;30.97;;;20.47;;
19867;SDS011;10096;51.112;6.776;2022-12-15T04:00:16;30.67;;;21.13;;
19867;SDS011;10096;51.112;6.776;2022-12-15T04:02:45;28.87;;;20.43;;
19867;SDS011;10096;51.112;6.776;2022-12-15T04:05:13;33.23;;;21.20;;
19867;SDS011;10096;51.112;6.776;2022-12-15T04:07:42;30.97;;;20.23;;
19867;SDS011;10096;51.112;6.776;2022-12-15T04:10:10;31.80;;;21.07;;
19867;SDS011;10096;51.112;6.776;2022-12-15T04:12:39;30.93;;;20.20;;
19867;SDS011;10096;51.112;6.776;2022-12-15T04:15:06;28.80;;;20.27;;
19867;SDS011;10096;51.112;6.776;2022-12-15T04:17:35;34.70;;;21.10;;
19867;SDS011;10096;51.112;6.776;2022-12-15T04:20:02;34.77;;;22.40;;
19867;SDS011;10096;51.112;6.776;2022-12-15T04:22:34;29.97;;;20.27;;
19867;SDS011;10096;51.112;6.776;2022-12-15T04:25:03;31.73;;;21.63;;
19867;SDS011;10096;51.112;6.776;2022-12-15T04:27:49;29.13;;;19.13;;
19867;SDS011;10096;51.112;6.776;2022-12-15T04:30:34;27.40;;;20.03;;
19867;SDS011;10096;51.112;6.776;2022-12-15T04:33:18;31.77;;;20.77;;
19867;SDS011;10096;51.112;6.776;2022-12-15T04:36:04;31.83;;;21.53;;
19867;SDS011;10096;51.112;6.776;2022-12-15T04:38:50;30.53;;;21.17;;
19867;SDS011;10096;51.112;6.776;2022-12-15T04:41:35;30.47;;;20.47;;
19867;SDS011;10096;51.112;6.776;2022-12-15T04:44:21;29.77;;;20.27;;
19867;SDS011;10096;51.112;6.776;2022-12-15T04:47:06;33.50;;;21.57;;
19867;SDS011;10096;51.112;6.776;2022-12-15T04:49:50;33.50;;;21.20;;
19867;SDS011;10096;51.112;6.776;2022-12-15T04:52:35;31.37;;;20.00;;
19867;SDS011;10096;51.112;6.776;2022-12-15T04:55:19;36.80;;;20.63;;
19867;SDS011;10096;51.112;6.776;2022-12-15T04:58:04;35.37;;;20.57;;
19867;SDS011;10096;51.112;6.776;2022-12-15T05:00:51;31.67;;;20.47;;
19867;SDS011;10096;51.112;6.776;2022-12-15T05:03:36;33.57;;;22.27;;
19867;SDS011;10096;51.112;6.776;2022-12-15T05:06:21;35.70;;;21.83;;
19867;SDS011;10096;51.112;6.776;2022-12-15T05:09:05;34.53;;;22.20;;
19867;SDS011;10096;51.112;6.776;2022-12-15T05:11:50;31.47;;;21.57;;
19867;SDS011;10096;51.112;6.776;2022-12-15T05:14:34;33.87;;;22.70;;
19867;SDS011;10096;51.112;6.776;2022-12-15T05:17:20;31.50;;;22.90;;
19867;SDS011;10096;51.112;6.776;2022-12-15T05:20:05;33.90;;;21.97;;
19867;SDS011;10096;51.112;6.776;2022-12-15T05:22:53;32.80;;;21.50;;
19867;SDS011;10096;51.112;6.776;2022-12-15T05:25:39;31.83;;;20.93;;
19867;SDS011;10096;51.112;6.776;2022-12-15T05:28:23;33.47;;;21.00;;
19867;SDS011;10096;51.112;6.776;2022-12-15T05:31:08;31.70;;;20.50;;
19867;SDS011;10096;51.112;6.776;2022-12-15T05:33:54;33.03;;;21.60;;
19867;SDS011;10096;51.112;6.776;2022-12-15T05:36:22;31.93;;;22.50;;
19867;SDS011;10096;51.112;6.776;2022-12-15T05:38:49;33.73;;;23.03;;
19867;SDS011;10096;51.112;6.776;2022-12-15T05:41:18;32.07;;;22.57;;
19867;SDS011;10096;51.112;6.776;2022-12-15T05:43:46;29.73;;;19.17;;
19867;SDS011;10096;51.112;6.776;2022-12-15T05:46:14;29.30;;;19.83;;
19867;SDS011;10096;51.112;6.776;2022-12-15T05:48:41;30.50;;;19.60;;
19867;SDS011;10096;51.112;6.776;2022-12-15T05:51:10;30.90;;;21.07;;
19867;SDS011;10096;51.112;6.776;2022-12-15T05:53:38;32.13;;;20.83;;
19867;SDS011;10096;51.112;6.776;2022-12-15T05:56:06;30.13;;;20.77;;
19867;SDS011;10096;51.112;6.776;2022-12-15T05:58:35;27.70;;;20.30;;
19867;SDS011;10096;51.112;6.776;2022-12-15T06:01:03;28.60;;;19.73;;
19867;SDS011;10096;51.112;6.776;2022-12-15T06:03:31;30.90;;;21.27;;
19867;SDS011;10096;51.112;6.776;2022-12-15T06:05:58;28.93;;;19.97;;
19867;SDS011;10096;51.112;6.776;2022-12-15T06:08:29;28.87;;;20.97;;
19867;SDS011;10096;51.112;6.776;2022-12-15T06:10:57;27.80;;;21.07;;
19867;SDS011;10096;51.112;6.776;2022-12-15T06:13:24;33.50;;;22.07;;
19867;SDS011;10096;51.112;6.776;2022-12-15T06:15:53;39.63;;;21.90;;
19867;SDS011;10096;51.112;6.776;2022-12-15T06:18:22;33.60;;;21.30;;
19867;SDS011;10096;51.112;6.776;2022-12-15T06:20:55;29.97;;;21.03;;
19867;SDS011;10096;51.112;6.776;2022-12-15T06:23:23;33.17;;;21.10;;
19867;SDS011;10096;51.112;6.776;2022-12-15T06:25:54;32.03;;;20.77;;
19867;SDS011;10096;51.112;6.776;2022-12-15T06:28:21;30.07;;;20.23;;
19867;SDS011;10096;51.112;6.776;2022-12-15T06:30:52;31.40;;;20.53;;
19867;SDS011;10096;51.112;6.776;2022-12-15T06:33:28;33.50;;;21.93;;
19867;SDS011;10096;51.112;6.776;2022-12-15T06:35:56;32.83;;;21.80;;
19867;SDS011;10096;51.112;6.776;2022-12-15T06:38:27;31.57;;;20.83;;
19867;SDS011;10096;51.112;6.776;2022-12-15T06:40:56;32.13;;;20.63;;
19867;SDS011;10096;51.112;6.776;2022-12-15T06:43:25;27.30;;;19.53;;
19867;SDS011;10096;51.112;6.776;2022-12-15T06:45:53;30.80;;;20.50;;
19867;SDS011;10096;51.112;6.776;2022-12-15T06:48:21;29.33;;;19.80;;
19867;SDS011;10096;51.112;6.776;2022-12-15T06:50:49;29.10;;;20.10;;
19867;SDS011;10096;51.112;6.776;2022-12-15T06:53:17;31.10;;;22.43;;
19867;SDS011;10096;51.112;6.776;2022-12-15T06:55:46;30.37;;;20.80;;
19867;SDS011;10096;51.112;6.776;2022-12-15T06:58:15;31.70;;;20.43;;
19867;SDS011;10096;51.112;6.776;2022-12-15T07:00:43;31.00;;;20.27;;
19867;SDS011;10096;51.112;6.776;2022-12-15T07:03:11;33.50;;;20.33;;
19867;SDS011;10096;51.112;6.776;2022-12-15T07:05:40;33.37;;;20.37;;
19867;SDS011;10096;51.112;6.776;2022-12-15T07:08:07;30.20;;;20.73;;
19867;SDS011;10096;51.112;6.776;2022-12-15T07:10:36;32.47;;;20.43;;
19867;SDS011;10096;51.112;6.776;2022-12-15T07:13:04;30.53;;;20.23;;
19867;SDS011;10096;51.112;6.776;2022-12-15T07:15:33;30.77;;;20.87;;
19867;SDS011;10096;51.112;6.776;2022-12-15T07:18:01;32.70;;;20.37;;
19867;SDS011;10096;51.112;6.776;2022-12-15T07:20:29;32.27;;;21.47;;
19867;SDS011;10096;51.112;6.776;2022-12-15T07:22:56;34.70;;;21.53;;
19867;SDS011;10096;51.112;6.776;2022-12-15T07:25:24;32.10;;;20.77;;
19867;SDS011;10096;51.112;6.776;2022-12-15T07:27:51;32.40;;;18.87;;
19867;SDS011;10096;51.112;6.776;2022-12-15T07:30:20;29.23;;;20.27;;
19867;SDS011;10096;51.112;6.776;2022-12-15T07:32:50;30.50;;;21.03;;
19867;SDS011;10096;51.112;6.776;2022-12-15T07:35:19;38.40;;;23.73;;
19867;SDS011;10096;51.112;6.776;2022-12-15T07:37:47;29.03;;;19.80;;
19867;SDS011;10096;51.112;6.776;2022-12-15T07:40:14;32.77;;;21.53;;
19867;SDS011;10096;51.112;6.776;2022-12-15T07:42:41;30.47;;;19.50;;
19867;SDS011;10096;51.112;6.776;2022-12-15T07:45:09;29.23;;;20.53;;
19867;SDS011;10096;51.112;6.776;2022-12-15T07:47:38;29.60;;;20.43;;
19867;SDS011;10096;51.112;6.776;2022-12-15T07:50:07;32.73;;;21.37;;
19867;SDS011;10096;51.112;6.776;2022-12-15T07:52:35;31.07;;;21.80;;
19867;SDS011;10096;51.112;6.776;2022-12-15T07:55:02;31.67;;;21.37;;
19867;SDS011;10096;51.112;6.776;2022-12-15T07:57:30;34.40;;;20.90;;
19867;SDS011;10096;51.112;6.776;2022-12-15T07:59:57;36.90;;;22.27;;
19867;SDS011;10096;51.112;6.776;2022-12-15T08:02:25;36.23;;;21.27;;
19867;SDS011;10096;51.112;6.776;2022-12-15T08:04:52;37.47;;;22.00;;
19867;SDS011;10096;51.112;6.776;2022-12-15T08:07:20;37.40;;;22.60;;
19867;SDS011;10096;51.112;6.776;2022-12-15T08:09:48;34.67;;;21.70;;
19867;SDS011;10096;51.112;6.776;2022-12-15T08:12:15;45.77;;;24.13;;
19867;SDS011;10096;51.112;6.776;2022-12-15T08:14:43;41.63;;;22.47;;
19867;SDS011;10096;51.112;6.776;2022-12-15T08:17:10;41.90;;;24.07;;
19867;SDS011;10096;51.112;6.776;2022-12-15T08:19:37;39.57;;;23.17;;
19867;SDS011;10096;51.112;6.776;2022-12-15T08:22:04;43.37;;;25.20;;
19867;SDS011;10096;51.112;6.776;2022-12-15T08:24:33;40.33;;;25.10;;
19867;SDS011;10096;51.112;6.776;2022-12-15T08:27:00;46.53;;;25.50;;
19867;SDS011;10096;51.112;6.776;2022-12-15T08:29:27;46.93;;;26.07;;
19867;SDS011;10096;51.112;6.776;2022-12-15T08:31:54;41.77;;;24.83;;
19867;SDS011;10096;51.112;6.776;2022-12-15T08:34:21;43.67;;;24.53;;
19867;SDS011;10096;51.112;6.776;2022-12-15T08:36:48;40.10;;;21.73;;
19867;SDS011;10096;51.112;6.776;2022-12-15T08:39:15;40.20;;;22.87;;
19867;SDS011;10096;51.112;6.776;2022-12-15T08:41:44;38.10;;;24.57;;
19867;SDS011;10096;51.112;6.776;2022-12-15T08:44:11;47.70;;;26.30;;
19867;SDS011;10096;51.112;6.776;2022-12-15T08:46:38;43.03;;;26.27;;
19867;SDS011;10096;51.112;6.776;2022-12-15T08:49:06;42.33;;;25.47;;
19867;SDS011;10096;51.112;6.776;2022-12-15T08:51:33;48.07;;;27.13;;
19867;SDS011;10096;51.112;6.776;2022-12-15T08:54:01;40.13;;;22.57;;
19867;SDS011;10096;51.112;6.776;2022-12-15T08:56:28;44.90;;;25.33;;
19867;SDS011;10096;51.112;6.776;2022-12-15T08:58:59;48.63;;;29.30;;
19867;SDS011;10096;51.112;6.776;2022-12-15T09:01:28;43.03;;;26.40;;
19867;SDS011;10096;51.112;6.776;2022-12-15T09:03:56;46.83;;;28.27;;
19867;SDS011;10096;51.112;6.776;2022-12-15T09:06:24;50.80;;;28.30;;
19867;SDS011;10096;51.112;6.776;2022-12-15T09:08:53;44.03;;;26.13;;
19867;SDS011;10096;51.112;6.776;2022-12-15T09:11:23;44.83;;;28.23;;
19867;SDS011;10096;51.112;6.776;2022-12-15T09:13:51;48.33;;;28.73;;
19867;SDS011;10096;51.112;6.776;2022-12-15T09:16:19;51.37;;;30.57;;
19867;SDS011;10096;51.112;6.776;2022-12-15T09:18:47;46.50;;;28.67;;
19867;SDS011;10096;51.112;6.776;2022-12-15T09:21:15;51.87;;;29.67;;
19867;SDS011;10096;51.112;6.776;2022-12-15T09:23:45;46.00;;;28.73;;
19867;SDS011;10096;51.112;6.776;2022-12-15T09:26:15;45.80;;;27.47;;
19867;SDS011;10096;51.112;6.776;2022-12-15T09:28:45;48.83;;;30.00;;
19867;SDS011;10096;51.112;6.776;2022-12-15T09:31:13;43.70;;;26.90;;
19867;SDS011;10096;51.112;6.776;2022-12-15T09:33:43;48.53;;;28.50;;
19867;SDS011;10096;51.112;6.776;2022-12-15T09:36:11;42.07;;;25.93;;
19867;SDS011;10096;51.112;6.776;2022-12-15T09:38:39;50.37;;;29.87;;
19867;SDS011;10096;51.112;6.776;2022-12-15T09:41:08;44.73;;;29.57;;
19867;SDS011;10096;51.112;6.776;2022-12-15T09:43:45;46.50;;;29.73;;
19867;SDS011;10096;51.112;6.776;2022-12-15T09:46:19;48.87;;;29.63;;
19867;SDS011;10096;51.112;6.776;2022-12-15T09:48:53;42.83;;;27.17;;
19867;SDS011;10096;51.112;6.776;2022-12-15T09:51:25;48.43;;;30.47;;
19867;SDS011;10096;51.112;6.776;2022-12-15T09:53:58;46.37;;;28.83;;
19867;SDS011;10096;51.112;6.776;2022-12-15T09:56:29;50.37;;;30.67;;
19867;SDS011;10096;51.112;6.776;2022-12-15T09:59:02;48.43;;;30.23;;
19867;SDS011;10096;51.112;6.776;2022-12-15T10:01:36;42.63;;;28.20;;
19867;SDS011;10096;51.112;6.776;2022-12-15T10:04:12;46.40;;;27.70;;
19867;SDS011;10096;51.112;6.776;2022-12-15T10:06:48;45.87;;;28.10;;
19867;SDS011;10096;51.112;6.776;2022-12-15T10:09:20;45.57;;;28.47;;
19867;SDS011;10096;51.112;6.776;2022-12-15T10:11:53;47.10;;;29.23;;
19867;SDS011;10096;51.112;6.776;2022-12-15T10:14:26;48.60;;;29.83;;
19867;SDS011;10096;51.112;6.776;2022-12-15T10:17:01;42.83;;;27.80;;
19867;SDS011;10096;51.112;6.776;2022-12-15T10:19:35;46.40;;;30.53;;
19867;SDS011;10096;51.112;6.776;2022-12-15T10:22:09;47.27;;;29.70;;
19867;SDS011;10096;51.112;6.776;2022-12-15T10:24:39;46.57;;;29.37;;
19867;SDS011;10096;51.112;6.776;2022-12-15T10:27:11;48.47;;;30.93;;
19867;SDS011;10096;51.112;6.776;2022-12-15T10:29:54;49.30;;;28.17;;
19867;SDS011;10096;51.112;6.776;2022-12-15T10:32:28;44.23;;;27.83;;
19867;SDS011;10096;51.112;6.776;2022-12-15T10:35:07;48.63;;;29.27;;
19867;SDS011;10096;51.112;6.776;2022-12-15T10:37:38;47.87;;;29.33;;
19867;SDS011;10096;51.112;6.776;2022-12-15T10:40:06;52.30;;;31.93;;
19867;SDS011;10096;51.112;6.776;2022-12-15T10:42:43;51.43;;;31.77;;
19867;SDS011;10096;51.112;6.776;2022-12-15T10:45:27;47.97;;;30.27;;
19867;SDS011;10096;51.112;6.776;2022-12-15T10:47:57;47.87;;;29.83;;
19867;SDS011;10096;51.112;6.776;2022-12-15T10:50:28;49.80;;;31.47;;
19867;SDS011;10096;51.112;6.776;2022-12-15T10:52:55;45.60;;;26.90;;
19867;SDS011;10096;51.112;6.776;2022-12-15T10:55:31;44.37;;;28.10;;
19867;SDS011;10096;51.112;6.776;2022-12-15T10:58:02;46.67;;;28.80;;
19867;SDS011;10096;51.112;6.776;2022-12-15T11:00:40;39.40;;;25.37;;
19867;SDS011;10096;51.112;6.776;2022-12-15T11:03:19;47.10;;;30.43;;
19867;SDS011;10096;51.112;6.776;2022-12-15T11:05:52;48.87;;;30.03;;
19867;SDS011;10096;51.112;6.776;2022-12-15T11:08:21;49.13;;;30.63;;
19867;SDS011;10096;51.112;6.776;2022-12-15T11:10:51;46.17;;;30.77;;
19867;SDS011;10096;51.112;6.776;2022-12-15T11:13:37;45.07;;;30.37;;
19867;SDS011;10096;51.112;6.776;2022-12-15T11:16:13;50.80;;;31.90;;
19867;SDS011;10096;51.112;6.776;2022-12-15T11:18:42;46.23;;;29.33;;
19867;SDS011;10096;51.112;6.776;2022-12-15T11:21:18;53.13;;;31.27;;
19867;SDS011;10096;51.112;6.776;2022-12-15T11:24:00;64.13;;;40.07;;
19867;SDS011;10096;51.112;6.776;2022-12-15T11:26:36;47.90;;;30.57;;
19867;SDS011;10096;51.112;6.776;2022-12-15T11:29:16;53.67;;;33.90;;
19867;SDS011;10096;51.112;6.776;2022-12-15T11:31:50;51.23;;;32.07;;
19867;SDS011;10096;51.112;6.776;2022-12-15T11:34:18;49.20;;;31.50;;
19867;SDS011;10096;51.112;6.776;2022-12-15T11:39:44;50.13;;;30.73;;
19867;SDS011;10096;51.112;6.776;2022-12-15T11:42:27;48.43;;;32.10;;
19867;SDS011;10096;51.112;6.776;2022-12-15T11:45:06;56.43;;;34.23;;
19867;SDS011;10096;51.112;6.776;2022-12-15T11:47:42;53.10;;;34.57;;
19867;SDS011;10096;51.112;6.776;2022-12-15T11:50:16;48.97;;;31.90;;
19867;SDS011;10096;51.112;6.776;2022-12-15T11:55:42;49.60;;;31.13;;
19867;SDS011;10096;51.112;6.776;2022-12-15T12:01:16;49.63;;;32.13;;
19867;SDS011;10096;51.112;6.776;2022-12-15T12:03:53;45.57;;;30.43;;
19867;SDS011;10096;51.112;6.776;2022-12-15T12:06:31;65.27;;;39.63;;
19867;SDS011;10096;51.112;6.776;2022-12-15T12:09:13;50.60;;;33.00;;
19867;SDS011;10096;51.112;6.776;2022-12-15T12:11:51;47.53;;;31.10;;
19867;SDS011;10096;51.112;6.776;2022-12-15T12:14:24;46.10;;;29.67;;
19867;SDS011;10096;51.112;6.776;2022-12-15T12:17:00;40.73;;;29.03;;
19867;SDS011;10096;51.112;6.776;2022-12-15T12:19:33;43.40;;;28.27;;
19867;SDS011;10096;51.112;6.776;2022-12-15T12:22:06;48.10;;;30.40;;
19867;SDS011;10096;51.112;6.776;2022-12-15T12:24:42;42.03;;;29.93;;
19867;SDS011;10096;51.112;6.776;2022-12-15T12:27:16;45.23;;;30.53;;
19867;SDS011;10096;51.112;6.776;2022-12-15T12:29:53;43.53;;;27.97;;
19867;SDS011;10096;51.112;6.776;2022-12-15T12:32:29;44.33;;;30.20;;
19867;SDS011;10096;51.112;6.776;2022-12-15T12:35:06;45.30;;;31.27;;
19867;SDS011;10096;51.112;6.776;2022-12-15T12:37:41;43.77;;;28.63;;
19867;SDS011;10096;51.112;6.776;2022-12-15T12:40:16;50.30;;;29.93;;
19867;SDS011;10096;51.112;6.776;2022-12-15T12:42:50;45.57;;;31.40;;
19867;SDS011;10096;51.112;6.776;2022-12-15T12:45:19;71.83;;;46.97;;
19867;SDS011;10096;51.112;6.776;2022-12-15T12:47:50;47.33;;;30.67;;
19867;SDS011;10096;51.112;6.776;2022-12-15T12:50:21;44.10;;;29.57;;
19867;SDS011;10096;51.112;6.776;2022-12-15T12:52:51;47.23;;;29.00;;
19867;SDS011;10096;51.112;6.776;2022-12-15T12:55:38;49.73;;;31.03;;
19867;SDS011;10096;51.112;6.776;2022-12-15T13:01:03;44.83;;;29.80;;
19867;SDS011;10096;51.112;6.776;2022-12-15T13:03:40;48.83;;;30.77;;
19867;SDS011;10096;51.112;6.776;2022-12-15T13:06:18;43.43;;;29.57;;
19867;SDS011;10096;51.112;6.776;2022-12-15T13:08:49;45.30;;;28.23;;
19867;SDS011;10096;51.112;6.776;2022-12-15T13:17:28;53.27;;;32.33;;
19867;SDS011;10096;51.112;6.776;2022-12-15T13:22:55;54.53;;;33.53;;
19867;SDS011;10096;51.112;6.776;2022-12-15T13:26:10;48.93;;;30.47;;
19867;SDS011;10096;51.112;6.776;2022-12-15T13:28:44;44.33;;;31.30;;
19867;SDS011;10096;51.112;6.776;2022-12-15T13:31:24;46.97;;;30.33;;
19867;SDS011;10096;51.112;6.776;2022-12-15T13:34:01;47.23;;;30.93;;
19867;SDS011;10096;51.112;6.776;2022-12-15T13:39:32;47.67;;;30.20;;
19867;SDS011;10096;51.112;6.776;2022-12-15T13:42:24;52.87;;;32.67;;
19867;SDS011;10096;51.112;6.776;2022-12-15T13:47:58;47.17;;;30.07;;
19867;SDS011;10096;51.112;6.776;2022-12-15T13:50:35;49.53;;;31.57;;
19867;SDS011;10096;51.112;6.776;2022-12-15T13:53:12;48.53;;;30.70;;
19867;SDS011;10096;51.112;6.776;2022-12-15T13:55:50;50.10;;;31.57;;
19867;SDS011;10096;51.112;6.776;2022-12-15T13:58:24;47.73;;;30.57;;
19867;SDS011;10096;51.112;6.776;2022-12-15T14:00:55;49.90;;;31.53;;
19867;SDS011;10096;51.112;6.776;2022-12-15T14:03:25;54.20;;;32.10;;
19867;SDS011;10096;51.112;6.776;2022-12-15T14:05:52;50.93;;;30.17;;
19867;SDS011;10096;51.112;6.776;2022-12-15T14:08:21;48.07;;;32.50;;
19867;SDS011;10096;51.112;6.776;2022-12-15T14:10:51;48.67;;;32.33;;
19867;SDS011;10096;51.112;6.776;2022-12-15T14:13:22;48.23;;;30.03;;
19867;SDS011;10096;51.112;6.776;2022-12-15T14:15:51;48.13;;;30.90;;
19867;SDS011;10096;51.112;6.776;2022-12-15T14:18:21;47.87;;;29.67;;
19867;SDS011;10096;51.112;6.776;2022-12-15T14:20:52;49.40;;;31.03;;
19867;SDS011;10096;51.112;6.776;2022-12-15T14:23:21;53.17;;;29.90;;
19867;SDS011;10096;51.112;6.776;2022-12-15T14:25:56;49.83;;;29.90;;
19867;SDS011;10096;51.112;6.776;2022-12-15T14:28:31;47.67;;;29.50;;
19867;SDS011;10096;51.112;6.776;2022-12-15T14:31:01;44.53;;;30.13;;
19867;SDS011;10096;51.112;6.776;2022-12-15T14:33:33;49.23;;;29.53;;
19867;SDS011;10096;51.112;6.776;2022-12-15T14:36:03;43.73;;;28.80;;
19867;SDS011;10096;51.112;6.776;2022-12-15T14:38:36;45.90;;;29.13;;
19867;SDS011;10096;51.112;6.776;2022-12-15T14:41:09;45.97;;;29.80;;
19867;SDS011;10096;51.112;6.776;2022-12-15T14:43:45;47.23;;;28.97;;
19867;SDS011;10096;51.112;6.776;2022-12-15T14:46:14;47.33;;;30.27;;
19867;SDS011;10096;51.112;6.776;2022-12-15T14:48:59;45.20;;;29.33;;
19867;SDS011;10096;51.112;6.776;2022-12-15T14:51:31;49.33;;;28.83;;
19867;SDS011;10096;51.112;6.776;2022-12-15T14:54:23;48.87;;;30.97;;
19867;SDS011;10096;51.112;6.776;2022-12-15T14:57:01;47.00;;;30.37;;
19867;SDS011;10096;51.112;6.776;2022-12-15T14:59:39;47.47;;;29.60;;
19867;SDS011;10096;51.112;6.776;2022-12-15T15:02:12;55.42;;;39.33;;
19867;SDS011;10096;51.112;6.776;2022-12-15T15:04:54;48.87;;;32.27;;
19867;SDS011;10096;51.112;6.776;2022-12-15T15:07:27;47.80;;;32.13;;
19867;SDS011;10096;51.112;6.776;2022-12-15T15:09:55;47.93;;;30.60;;
19867;SDS011;10096;51.112;6.776;2022-12-15T15:12:25;44.17;;;30.23;;
19867;SDS011;10096;51.112;6.776;2022-12-15T15:15:06;48.07;;;31.00;;
19867;SDS011;10096;51.112;6.776;2022-12-15T15:17:42;54.03;;;40.53;;
19867;SDS011;10096;51.112;6.776;2022-12-15T15:20:17;50.13;;;34.70;;
19867;SDS011;10096;51.112;6.776;2022-12-15T15:23:00;55.00;;;37.47;;
19867;SDS011;10096;51.112;6.776;2022-12-15T15:25:37;54.13;;;32.27;;
19867;SDS011;10096;51.112;6.776;2022-12-15T15:28:13;45.00;;;29.33;;
19867;SDS011;10096;51.112;6.776;2022-12-15T15:30:47;50.50;;;31.87;;
19867;SDS011;10096;51.112;6.776;2022-12-15T15:33:16;48.50;;;31.00;;
19867;SDS011;10096;51.112;6.776;2022-12-15T15:35:46;51.50;;;31.43;;